sensor_id;sensor_type;location;lat;lon;timestamp;P1;durP1;ratioP1;P2;durP2;ratioP2
12467;SDS011;57850;52.922;6.256;2023-07-20T00:02:24;4.45;;;4.03;;
12467;SDS011;57850;52.922;6.256;2023-07-20T00:04:51;6.15;;;4.45;;
12467;SDS011;57850;52.922;6.256;2023-07-20T00:07:17;4.55;;;4.15;;
12467;SDS011;57850;52.922;6.256;2023-07-20T00:09:45;4.85;;;4.40;;
12467;SDS011;57850;52.922;6.256;2023-07-20T00:12:13;4.20;;;3.80;;
12467;SDS011;57850;52.922;6.256;2023-07-20T00:14:40;4.70;;;4.13;;
12467;SDS011;57850;52.922;6.256;2023-07-20T00:17:06;4.45;;;4.05;;
12467;SDS011;57850;52.922;6.256;2023-07-20T00:19:33;5.93;;;4.18;;
12467;SDS011;57850;52.922;6.256;2023-07-20T00:22:00;4.78;;;4.20;;
12467;SDS011;57850;52.922;6.256;2023-07-20T00:24:26;3.95;;;3.55;;
12467;SDS011;57850;52.922;6.256;2023-07-20T00:26:54;6.90;;;4.03;;
12467;SDS011;57850;52.922;6.256;2023-07-20T00:29:21;4.63;;;4.10;;
12467;SDS011;57850;52.922;6.256;2023-07-20T00:31:47;5.20;;;4.13;;
12467;SDS011;57850;52.922;6.256;2023-07-20T00:34:14;4.20;;;3.80;;
12467;SDS011;57850;52.922;6.256;2023-07-20T00:36:41;3.88;;;3.58;;
12467;SDS011;57850;52.922;6.256;2023-07-20T00:39:07;4.57;;;3.67;;
12467;SDS011;57850;52.922;6.256;2023-07-20T00:41:34;6.05;;;4.43;;
12467;SDS011;57850;52.922;6.256;2023-07-20T00:44:02;4.20;;;3.80;;
12467;SDS011;57850;52.922;6.256;2023-07-20T00:46:29;4.50;;;4.07;;
12467;SDS011;57850;52.922;6.256;2023-07-20T00:48:57;3.85;;;3.55;;
12467;SDS011;57850;52.922;6.256;2023-07-20T00:51:25;4.30;;;3.90;;
12467;SDS011;57850;52.922;6.256;2023-07-20T00:53:52;7.15;;;3.70;;
12467;SDS011;57850;52.922;6.256;2023-07-20T00:56:19;5.75;;;3.80;;
12467;SDS011;57850;52.922;6.256;2023-07-20T00:58:46;3.88;;;3.58;;
12467;SDS011;57850;52.922;6.256;2023-07-20T01:01:14;4.18;;;3.88;;
12467;SDS011;57850;52.922;6.256;2023-07-20T01:03:41;4.40;;;3.83;;
12467;SDS011;57850;52.922;6.256;2023-07-20T01:06:13;4.50;;;3.50;;
12467;SDS011;57850;52.922;6.256;2023-07-20T01:08:50;4.85;;;4.05;;
12467;SDS011;57850;52.922;6.256;2023-07-20T01:11:27;4.82;;;4.32;;
12467;SDS011;57850;52.922;6.256;2023-07-20T01:14:02;4.95;;;4.00;;
12467;SDS011;57850;52.922;6.256;2023-07-20T01:16:30;5.93;;;4.03;;
12467;SDS011;57850;52.922;6.256;2023-07-20T01:18:57;4.15;;;3.75;;
12467;SDS011;57850;52.922;6.256;2023-07-20T01:21:24;4.35;;;3.95;;
12467;SDS011;57850;52.922;6.256;2023-07-20T01:24:05;4.93;;;4.47;;
12467;SDS011;57850;52.922;6.256;2023-07-20T01:30:45;4.10;;;3.78;;
12467;SDS011;57850;52.922;6.256;2023-07-20T01:33:18;3.88;;;3.58;;
12467;SDS011;57850;52.922;6.256;2023-07-20T01:35:46;4.32;;;3.92;;
12467;SDS011;57850;52.922;6.256;2023-07-20T01:38:17;3.25;;;2.95;;
12467;SDS011;57850;52.922;6.256;2023-07-20T01:40:45;3.25;;;2.95;;
12467;SDS011;57850;52.922;6.256;2023-07-20T01:43:12;2.83;;;2.63;;
12467;SDS011;57850;52.922;6.256;2023-07-20T01:45:39;3.78;;;3.47;;
12467;SDS011;57850;52.922;6.256;2023-07-20T01:48:06;2.95;;;2.65;;
12467;SDS011;57850;52.922;6.256;2023-07-20T01:50:34;2.85;;;2.60;;
12467;SDS011;57850;52.922;6.256;2023-07-20T01:53:01;23.77;;;3.03;;
12467;SDS011;57850;52.922;6.256;2023-07-20T01:55:27;2.70;;;2.50;;
12467;SDS011;57850;52.922;6.256;2023-07-20T01:57:54;2.88;;;2.60;;
12467;SDS011;57850;52.922;6.256;2023-07-20T02:00:21;3.97;;;3.58;;
12467;SDS011;57850;52.922;6.256;2023-07-20T02:02:49;3.95;;;3.47;;
12467;SDS011;57850;52.922;6.256;2023-07-20T02:05:16;3.55;;;3.25;;
12467;SDS011;57850;52.922;6.256;2023-07-20T02:07:44;3.65;;;3.30;;
12467;SDS011;57850;52.922;6.256;2023-07-20T02:10:10;3.80;;;3.40;;
12467;SDS011;57850;52.922;6.256;2023-07-20T02:12:37;3.08;;;2.88;;
12467;SDS011;57850;52.922;6.256;2023-07-20T02:15:04;3.10;;;2.40;;
12467;SDS011;57850;52.922;6.256;2023-07-20T02:17:32;2.47;;;2.28;;
12467;SDS011;57850;52.922;6.256;2023-07-20T02:19:58;2.63;;;2.42;;
12467;SDS011;57850;52.922;6.256;2023-07-20T02:22:25;3.58;;;3.28;;
12467;SDS011;57850;52.922;6.256;2023-07-20T02:24:53;21.65;;;3.83;;
12467;SDS011;57850;52.922;6.256;2023-07-20T02:27:19;7.30;;;3.67;;
12467;SDS011;57850;52.922;6.256;2023-07-20T02:29:46;3.38;;;2.90;;
12467;SDS011;57850;52.922;6.256;2023-07-20T02:32:12;4.03;;;3.63;;
12467;SDS011;57850;52.922;6.256;2023-07-20T02:34:39;4.13;;;3.72;;
12467;SDS011;57850;52.922;6.256;2023-07-20T02:37:05;3.00;;;2.70;;
12467;SDS011;57850;52.922;6.256;2023-07-20T02:39:33;5.55;;;3.05;;
12467;SDS011;57850;52.922;6.256;2023-07-20T02:42:01;2.38;;;2.17;;
12467;SDS011;57850;52.922;6.256;2023-07-20T02:44:27;3.45;;;3.15;;
12467;SDS011;57850;52.922;6.256;2023-07-20T02:46:55;2.17;;;1.98;;
12467;SDS011;57850;52.922;6.256;2023-07-20T02:49:21;2.63;;;2.42;;
12467;SDS011;57850;52.922;6.256;2023-07-20T02:51:48;2.00;;;1.90;;
12467;SDS011;57850;52.922;6.256;2023-07-20T02:54:14;1.85;;;1.70;;
12467;SDS011;57850;52.922;6.256;2023-07-20T02:56:41;3.05;;;2.00;;
12467;SDS011;57850;52.922;6.256;2023-07-20T02:59:09;1.67;;;1.58;;
12467;SDS011;57850;52.922;6.256;2023-07-20T03:01:36;2.38;;;2.17;;
12467;SDS011;57850;52.922;6.256;2023-07-20T03:04:03;2.25;;;2.05;;
12467;SDS011;57850;52.922;6.256;2023-07-20T03:06:30;2.70;;;2.40;;
12467;SDS011;57850;52.922;6.256;2023-07-20T03:09:01;3.30;;;3.00;;
12467;SDS011;57850;52.922;6.256;2023-07-20T03:11:28;2.92;;;2.65;;
12467;SDS011;57850;52.922;6.256;2023-07-20T03:13:55;2.30;;;2.10;;
12467;SDS011;57850;52.922;6.256;2023-07-20T03:16:23;3.40;;;2.50;;
12467;SDS011;57850;52.922;6.256;2023-07-20T03:18:51;1.92;;;1.83;;
12467;SDS011;57850;52.922;6.256;2023-07-20T03:21:18;2.53;;;2.33;;
12467;SDS011;57850;52.922;6.256;2023-07-20T03:23:45;2.30;;;2.10;;
12467;SDS011;57850;52.922;6.256;2023-07-20T03:26:12;2.75;;;2.55;;
12467;SDS011;57850;52.922;6.256;2023-07-20T03:28:39;2.55;;;2.35;;
12467;SDS011;57850;52.922;6.256;2023-07-20T03:31:05;3.03;;;2.67;;
12467;SDS011;57850;52.922;6.256;2023-07-20T03:33:33;2.78;;;2.58;;
12467;SDS011;57850;52.922;6.256;2023-07-20T03:36:00;3.45;;;3.10;;
12467;SDS011;57850;52.922;6.256;2023-07-20T03:38:27;3.08;;;2.42;;
12467;SDS011;57850;52.922;6.256;2023-07-20T03:40:54;2.35;;;1.70;;
12467;SDS011;57850;52.922;6.256;2023-07-20T03:43:22;1.63;;;1.52;;
12467;SDS011;57850;52.922;6.256;2023-07-20T03:45:49;1.80;;;1.70;;
12467;SDS011;57850;52.922;6.256;2023-07-20T03:48:16;2.35;;;2.00;;
12467;SDS011;57850;52.922;6.256;2023-07-20T03:50:45;2.25;;;2.05;;
12467;SDS011;57850;52.922;6.256;2023-07-20T03:53:12;2.50;;;2.30;;
12467;SDS011;57850;52.922;6.256;2023-07-20T03:55:39;2.63;;;2.42;;
12467;SDS011;57850;52.922;6.256;2023-07-20T03:58:06;2.13;;;1.92;;
12467;SDS011;57850;52.922;6.256;2023-07-20T04:00:33;2.13;;;1.90;;
12467;SDS011;57850;52.922;6.256;2023-07-20T04:03:00;1.67;;;1.58;;
12467;SDS011;57850;52.922;6.256;2023-07-20T04:05:26;1.80;;;1.70;;
12467;SDS011;57850;52.922;6.256;2023-07-20T04:07:54;1.90;;;1.80;;
12467;SDS011;57850;52.922;6.256;2023-07-20T04:10:21;2.10;;;1.90;;
12467;SDS011;57850;52.922;6.256;2023-07-20T04:12:48;2.50;;;2.30;;
12467;SDS011;57850;52.922;6.256;2023-07-20T04:15:14;3.28;;;2.97;;
12467;SDS011;57850;52.922;6.256;2023-07-20T04:17:41;4.63;;;2.80;;
12467;SDS011;57850;52.922;6.256;2023-07-20T04:20:08;2.95;;;2.65;;
12467;SDS011;57850;52.922;6.256;2023-07-20T04:22:35;2.60;;;2.40;;
12467;SDS011;57850;52.922;6.256;2023-07-20T04:25:03;3.55;;;2.70;;
12467;SDS011;57850;52.922;6.256;2023-07-20T04:27:30;1.95;;;1.85;;
12467;SDS011;57850;52.922;6.256;2023-07-20T04:29:57;2.65;;;2.45;;
12467;SDS011;57850;52.922;6.256;2023-07-20T04:32:25;2.50;;;2.30;;
12467;SDS011;57850;52.922;6.256;2023-07-20T04:34:51;3.80;;;3.40;;
12467;SDS011;57850;52.922;6.256;2023-07-20T04:37:18;3.40;;;3.10;;
12467;SDS011;57850;52.922;6.256;2023-07-20T04:39:45;6.22;;;3.30;;
12467;SDS011;57850;52.922;6.256;2023-07-20T04:42:13;3.58;;;3.13;;
12467;SDS011;57850;52.922;6.256;2023-07-20T04:44:40;2.83;;;2.63;;
12467;SDS011;57850;52.922;6.256;2023-07-20T04:47:07;3.45;;;3.15;;
12467;SDS011;57850;52.922;6.256;2023-07-20T04:49:34;3.58;;;3.28;;
12467;SDS011;57850;52.922;6.256;2023-07-20T04:52:01;3.78;;;3.35;;
12467;SDS011;57850;52.922;6.256;2023-07-20T04:54:28;3.85;;;3.45;;
12467;SDS011;57850;52.922;6.256;2023-07-20T04:56:55;3.72;;;3.42;;
12467;SDS011;57850;52.922;6.256;2023-07-20T04:59:23;4.65;;;3.83;;
12467;SDS011;57850;52.922;6.256;2023-07-20T05:01:49;4.32;;;3.92;;
12467;SDS011;57850;52.922;6.256;2023-07-20T05:04:16;5.25;;;3.97;;
12467;SDS011;57850;52.922;6.256;2023-07-20T05:06:42;4.45;;;4.05;;
12467;SDS011;57850;52.922;6.256;2023-07-20T05:09:09;5.40;;;4.57;;
12467;SDS011;57850;52.922;6.256;2023-07-20T05:11:36;5.95;;;4.88;;
12467;SDS011;57850;52.922;6.256;2023-07-20T05:14:03;4.45;;;4.05;;
12467;SDS011;57850;52.922;6.256;2023-07-20T05:16:31;6.57;;;5.00;;
12467;SDS011;57850;52.922;6.256;2023-07-20T05:18:58;5.15;;;4.65;;
12467;SDS011;57850;52.922;6.256;2023-07-20T05:21:24;5.63;;;4.40;;
12467;SDS011;57850;52.922;6.256;2023-07-20T05:23:51;5.25;;;4.75;;
12467;SDS011;57850;52.922;6.256;2023-07-20T05:26:17;4.97;;;4.47;;
12467;SDS011;57850;52.922;6.256;2023-07-20T05:28:44;7.25;;;4.40;;
12467;SDS011;57850;52.922;6.256;2023-07-20T05:31:11;5.60;;;4.47;;
12467;SDS011;57850;52.922;6.256;2023-07-20T05:33:39;5.10;;;4.55;;
12467;SDS011;57850;52.922;6.256;2023-07-20T05:36:05;5.60;;;4.90;;
12467;SDS011;57850;52.922;6.256;2023-07-20T05:38:32;5.47;;;4.95;;
12467;SDS011;57850;52.922;6.256;2023-07-20T05:40:59;5.35;;;4.85;;
12467;SDS011;57850;52.922;6.256;2023-07-20T05:43:27;7.07;;;4.43;;
12467;SDS011;57850;52.922;6.256;2023-07-20T05:45:53;4.32;;;3.90;;
12467;SDS011;57850;52.922;6.256;2023-07-20T05:48:20;4.97;;;4.22;;
12467;SDS011;57850;52.922;6.256;2023-07-20T05:50:47;5.15;;;3.80;;
12467;SDS011;57850;52.922;6.256;2023-07-20T05:53:14;5.05;;;4.15;;
12467;SDS011;57850;52.922;6.256;2023-07-20T05:55:41;7.00;;;3.80;;
12467;SDS011;57850;52.922;6.256;2023-07-20T05:58:07;4.80;;;4.28;;
12467;SDS011;57850;52.922;6.256;2023-07-20T06:00:34;4.75;;;4.35;;
12467;SDS011;57850;52.922;6.256;2023-07-20T06:03:02;5.70;;;3.65;;
12467;SDS011;57850;52.922;6.256;2023-07-20T06:05:29;4.82;;;4.28;;
12467;SDS011;57850;52.922;6.256;2023-07-20T06:07:57;7.03;;;3.45;;
12467;SDS011;57850;52.922;6.256;2023-07-20T06:10:25;6.78;;;3.67;;
12467;SDS011;57850;52.922;6.256;2023-07-20T06:12:52;6.03;;;3.38;;
12467;SDS011;57850;52.922;6.256;2023-07-20T06:15:26;4.00;;;3.63;;
12467;SDS011;57850;52.922;6.256;2023-07-20T06:17:55;7.05;;;4.22;;
12467;SDS011;57850;52.922;6.256;2023-07-20T06:20:23;5.80;;;3.65;;
12467;SDS011;57850;52.922;6.256;2023-07-20T06:22:49;3.83;;;3.50;;
12467;SDS011;57850;52.922;6.256;2023-07-20T06:25:17;3.50;;;3.00;;
12467;SDS011;57850;52.922;6.256;2023-07-20T06:27:45;6.38;;;2.95;;
12467;SDS011;57850;52.922;6.256;2023-07-20T06:30:12;3.42;;;2.90;;
12467;SDS011;57850;52.922;6.256;2023-07-20T06:32:38;4.13;;;2.30;;
12467;SDS011;57850;52.922;6.256;2023-07-20T06:35:05;3.03;;;2.78;;
12467;SDS011;57850;52.922;6.256;2023-07-20T06:37:33;2.97;;;2.40;;
12467;SDS011;57850;52.922;6.256;2023-07-20T06:40:00;4.60;;;2.67;;
12467;SDS011;57850;52.922;6.256;2023-07-20T06:42:29;3.90;;;2.53;;
12467;SDS011;57850;52.922;6.256;2023-07-20T06:44:56;3.13;;;2.58;;
12467;SDS011;57850;52.922;6.256;2023-07-20T06:47:23;2.80;;;2.30;;
12467;SDS011;57850;52.922;6.256;2023-07-20T06:49:49;2.67;;;2.40;;
12467;SDS011;57850;52.922;6.256;2023-07-20T06:52:16;3.22;;;2.17;;
12467;SDS011;57850;52.922;6.256;2023-07-20T06:54:42;3.38;;;2.13;;
12467;SDS011;57850;52.922;6.256;2023-07-20T06:57:09;2.88;;;2.00;;
12467;SDS011;57850;52.922;6.256;2023-07-20T06:59:38;4.60;;;2.88;;
12467;SDS011;57850;52.922;6.256;2023-07-20T07:02:05;4.47;;;1.92;;
12467;SDS011;57850;52.922;6.256;2023-07-20T07:04:31;3.33;;;1.90;;
12467;SDS011;57850;52.922;6.256;2023-07-20T07:06:58;2.45;;;1.67;;
12467;SDS011;57850;52.922;6.256;2023-07-20T07:09:25;5.80;;;1.80;;
12467;SDS011;57850;52.922;6.256;2023-07-20T07:11:51;2.95;;;1.70;;
12467;SDS011;57850;52.922;6.256;2023-07-20T07:14:19;2.40;;;1.75;;
12467;SDS011;57850;52.922;6.256;2023-07-20T07:16:48;3.97;;;2.05;;
12467;SDS011;57850;52.922;6.256;2023-07-20T07:19:14;3.47;;;2.10;;
12467;SDS011;57850;52.922;6.256;2023-07-20T07:21:41;5.35;;;2.13;;
12467;SDS011;57850;52.922;6.256;2023-07-20T07:24:07;1.85;;;1.50;;
12467;SDS011;57850;52.922;6.256;2023-07-20T07:26:35;4.05;;;1.67;;
12467;SDS011;57850;52.922;6.256;2023-07-20T07:29:02;3.80;;;1.80;;
12467;SDS011;57850;52.922;6.256;2023-07-20T07:31:29;2.55;;;1.80;;
12467;SDS011;57850;52.922;6.256;2023-07-20T07:33:56;2.80;;;1.90;;
12467;SDS011;57850;52.922;6.256;2023-07-20T07:36:23;2.28;;;1.58;;
12467;SDS011;57850;52.922;6.256;2023-07-20T07:38:50;3.72;;;1.90;;
12467;SDS011;57850;52.922;6.256;2023-07-20T07:41:17;4.22;;;1.90;;
12467;SDS011;57850;52.922;6.256;2023-07-20T07:43:43;5.60;;;1.65;;
12467;SDS011;57850;52.922;6.256;2023-07-20T07:46:10;5.22;;;1.70;;
12467;SDS011;57850;52.922;6.256;2023-07-20T07:48:37;2.60;;;1.63;;
12467;SDS011;57850;52.922;6.256;2023-07-20T07:51:04;2.28;;;1.52;;
12467;SDS011;57850;52.922;6.256;2023-07-20T07:53:31;2.10;;;1.50;;
12467;SDS011;57850;52.922;6.256;2023-07-20T07:55:59;2.85;;;1.70;;
12467;SDS011;57850;52.922;6.256;2023-07-20T07:58:28;4.13;;;1.52;;
12467;SDS011;57850;52.922;6.256;2023-07-20T08:00:56;2.22;;;1.70;;
12467;SDS011;57850;52.922;6.256;2023-07-20T08:03:23;1.60;;;1.50;;
12467;SDS011;57850;52.922;6.256;2023-07-20T08:05:49;3.60;;;1.67;;
12467;SDS011;57850;52.922;6.256;2023-07-20T08:08:18;2.50;;;1.58;;
12467;SDS011;57850;52.922;6.256;2023-07-20T08:10:45;2.65;;;1.75;;
12467;SDS011;57850;52.922;6.256;2023-07-20T08:13:12;2.67;;;1.75;;
12467;SDS011;57850;52.922;6.256;2023-07-20T08:15:39;2.28;;;1.38;;
12467;SDS011;57850;52.922;6.256;2023-07-20T08:18:05;2.00;;;1.58;;
12467;SDS011;57850;52.922;6.256;2023-07-20T08:20:33;2.17;;;1.60;;
12467;SDS011;57850;52.922;6.256;2023-07-20T08:23:00;4.93;;;1.60;;
12467;SDS011;57850;52.922;6.256;2023-07-20T08:25:28;3.53;;;1.60;;
12467;SDS011;57850;52.922;6.256;2023-07-20T08:27:55;2.58;;;1.80;;
12467;SDS011;57850;52.922;6.256;2023-07-20T08:30:22;1.60;;;1.27;;
12467;SDS011;57850;52.922;6.256;2023-07-20T08:32:49;1.83;;;1.60;;
12467;SDS011;57850;52.922;6.256;2023-07-20T08:35:15;1.50;;;1.40;;
12467;SDS011;57850;52.922;6.256;2023-07-20T08:37:43;2.15;;;1.45;;
12467;SDS011;57850;52.922;6.256;2023-07-20T08:40:10;3.08;;;1.73;;
12467;SDS011;57850;52.922;6.256;2023-07-20T08:42:39;2.00;;;1.40;;
12467;SDS011;57850;52.922;6.256;2023-07-20T08:45:07;2.88;;;1.60;;
12467;SDS011;57850;52.922;6.256;2023-07-20T08:47:35;3.92;;;2.03;;
12467;SDS011;57850;52.922;6.256;2023-07-20T08:50:03;3.30;;;1.50;;
12467;SDS011;57850;52.922;6.256;2023-07-20T08:52:34;1.38;;;1.27;;
12467;SDS011;57850;52.922;6.256;2023-07-20T08:55:01;4.82;;;1.48;;
12467;SDS011;57850;52.922;6.256;2023-07-20T08:57:28;1.75;;;1.52;;
12467;SDS011;57850;52.922;6.256;2023-07-20T08:59:57;2.65;;;1.52;;
12467;SDS011;57850;52.922;6.256;2023-07-20T09:02:24;2.25;;;1.40;;
12467;SDS011;57850;52.922;6.256;2023-07-20T09:04:53;3.30;;;1.70;;
12467;SDS011;57850;52.922;6.256;2023-07-20T09:07:19;2.20;;;1.75;;
12467;SDS011;57850;52.922;6.256;2023-07-20T09:09:46;1.40;;;1.10;;
12467;SDS011;57850;52.922;6.256;2023-07-20T09:12:13;3.35;;;1.60;;
12467;SDS011;57850;52.922;6.256;2023-07-20T09:14:42;2.15;;;1.42;;
12467;SDS011;57850;52.922;6.256;2023-07-20T09:17:13;2.13;;;1.60;;
12467;SDS011;57850;52.922;6.256;2023-07-20T09:19:45;3.03;;;1.92;;
12467;SDS011;57850;52.922;6.256;2023-07-20T09:22:12;4.13;;;1.90;;
12467;SDS011;57850;52.922;6.256;2023-07-20T09:24:39;2.10;;;1.60;;
12467;SDS011;57850;52.922;6.256;2023-07-20T09:27:06;3.92;;;1.90;;
12467;SDS011;57850;52.922;6.256;2023-07-20T09:29:34;2.08;;;1.52;;
12467;SDS011;57850;52.922;6.256;2023-07-20T09:32:01;5.05;;;1.65;;
12467;SDS011;57850;52.922;6.256;2023-07-20T09:34:30;4.20;;;1.95;;
12467;SDS011;57850;52.922;6.256;2023-07-20T09:36:57;3.63;;;1.90;;
12467;SDS011;57850;52.922;6.256;2023-07-20T09:39:24;5.97;;;2.20;;
12467;SDS011;57850;52.922;6.256;2023-07-20T09:41:51;4.35;;;1.90;;
12467;SDS011;57850;52.922;6.256;2023-07-20T09:44:17;2.45;;;1.70;;
12467;SDS011;57850;52.922;6.256;2023-07-20T09:46:45;3.92;;;1.90;;
12467;SDS011;57850;52.922;6.256;2023-07-20T09:49:12;3.83;;;1.85;;
12467;SDS011;57850;52.922;6.256;2023-07-20T09:51:40;2.20;;;1.73;;
12467;SDS011;57850;52.922;6.256;2023-07-20T09:54:07;2.50;;;1.90;;
12467;SDS011;57850;52.922;6.256;2023-07-20T09:56:34;3.63;;;2.22;;
12467;SDS011;57850;52.922;6.256;2023-07-20T09:59:02;4.40;;;1.83;;
12467;SDS011;57850;52.922;6.256;2023-07-20T10:01:29;4.63;;;2.00;;
12467;SDS011;57850;52.922;6.256;2023-07-20T10:03:59;3.92;;;2.00;;
12467;SDS011;57850;52.922;6.256;2023-07-20T10:06:29;3.92;;;2.00;;
12467;SDS011;57850;52.922;6.256;2023-07-20T10:09:00;3.83;;;1.83;;
12467;SDS011;57850;52.922;6.256;2023-07-20T10:11:29;4.10;;;2.00;;
12467;SDS011;57850;52.922;6.256;2023-07-20T10:13:59;1.88;;;1.77;;
12467;SDS011;57850;52.922;6.256;2023-07-20T10:16:28;3.08;;;1.70;;
12467;SDS011;57850;52.922;6.256;2023-07-20T10:18:59;2.90;;;1.75;;
12467;SDS011;57850;52.922;6.256;2023-07-20T10:21:31;2.35;;;2.15;;
12467;SDS011;57850;52.922;6.256;2023-07-20T10:24:01;2.00;;;1.90;;
12467;SDS011;57850;52.922;6.256;2023-07-20T10:26:28;2.95;;;1.70;;
12467;SDS011;57850;52.922;6.256;2023-07-20T10:28:56;2.92;;;1.73;;
12467;SDS011;57850;52.922;6.256;2023-07-20T10:31:24;1.98;;;1.80;;
12467;SDS011;57850;52.922;6.256;2023-07-20T10:33:54;2.42;;;2.22;;
12467;SDS011;57850;52.922;6.256;2023-07-20T10:36:24;3.53;;;2.30;;
12467;SDS011;57850;52.922;6.256;2023-07-20T10:38:52;2.45;;;1.98;;
12467;SDS011;57850;52.922;6.256;2023-07-20T10:41:27;2.67;;;2.13;;
12467;SDS011;57850;52.922;6.256;2023-07-20T10:43:58;4.72;;;2.10;;
12467;SDS011;57850;52.922;6.256;2023-07-20T10:46:33;2.20;;;2.00;;
12467;SDS011;57850;52.922;6.256;2023-07-20T10:49:08;1.95;;;1.70;;
12467;SDS011;57850;52.922;6.256;2023-07-20T10:51:39;2.72;;;1.70;;
12467;SDS011;57850;52.922;6.256;2023-07-20T10:59:50;1.85;;;1.65;;
12467;SDS011;57850;52.922;6.256;2023-07-20T11:02:17;1.90;;;1.77;;
12467;SDS011;57850;52.922;6.256;2023-07-20T11:04:45;1.80;;;1.67;;
12467;SDS011;57850;52.922;6.256;2023-07-20T11:07:15;2.80;;;2.00;;
12467;SDS011;57850;52.922;6.256;2023-07-20T11:09:42;2.78;;;1.83;;
12467;SDS011;57850;52.922;6.256;2023-07-20T11:12:09;1.83;;;1.73;;
12467;SDS011;57850;52.922;6.256;2023-07-20T11:14:41;3.65;;;1.88;;
12467;SDS011;57850;52.922;6.256;2023-07-20T11:17:12;2.47;;;1.80;;
12467;SDS011;57850;52.922;6.256;2023-07-20T11:19:39;2.30;;;2.10;;
12467;SDS011;57850;52.922;6.256;2023-07-20T11:22:06;2.10;;;1.80;;
12467;SDS011;57850;52.922;6.256;2023-07-20T11:24:34;3.90;;;1.80;;
12467;SDS011;57850;52.922;6.256;2023-07-20T11:27:01;2.10;;;1.90;;
12467;SDS011;57850;52.922;6.256;2023-07-20T11:29:27;2.55;;;1.85;;
12467;SDS011;57850;52.922;6.256;2023-07-20T11:31:55;3.10;;;1.85;;
12467;SDS011;57850;52.922;6.256;2023-07-20T11:34:24;2.55;;;1.80;;
12467;SDS011;57850;52.922;6.256;2023-07-20T11:36:52;1.60;;;1.50;;
12467;SDS011;57850;52.922;6.256;2023-07-20T11:39:21;2.33;;;1.63;;
12467;SDS011;57850;52.922;6.256;2023-07-20T11:41:50;4.25;;;1.98;;
12467;SDS011;57850;52.922;6.256;2023-07-20T11:44:17;2.10;;;1.70;;
12467;SDS011;57850;52.922;6.256;2023-07-20T11:46:44;1.83;;;1.70;;
12467;SDS011;57850;52.922;6.256;2023-07-20T11:49:12;2.05;;;1.70;;
12467;SDS011;57850;52.922;6.256;2023-07-20T11:51:39;5.57;;;1.70;;
12467;SDS011;57850;52.922;6.256;2023-07-20T11:54:07;1.55;;;1.42;;
12467;SDS011;57850;52.922;6.256;2023-07-20T11:56:35;2.13;;;1.77;;
12467;SDS011;57850;52.922;6.256;2023-07-20T11:59:02;1.85;;;1.50;;
12467;SDS011;57850;52.922;6.256;2023-07-20T12:01:29;2.28;;;1.60;;
12467;SDS011;57850;52.922;6.256;2023-07-20T12:03:58;2.63;;;1.40;;
12467;SDS011;57850;52.922;6.256;2023-07-20T12:06:28;2.17;;;1.67;;
12467;SDS011;57850;52.922;6.256;2023-07-20T12:08:55;3.75;;;1.60;;
12467;SDS011;57850;52.922;6.256;2023-07-20T12:11:30;1.63;;;1.50;;
12467;SDS011;57850;52.922;6.256;2023-07-20T12:13:57;2.10;;;1.73;;
12467;SDS011;57850;52.922;6.256;2023-07-20T12:16:26;1.52;;;1.40;;
12467;SDS011;57850;52.922;6.256;2023-07-20T12:18:58;1.60;;;1.50;;
12467;SDS011;57850;52.922;6.256;2023-07-20T12:21:27;2.65;;;1.70;;
12467;SDS011;57850;52.922;6.256;2023-07-20T12:23:55;1.55;;;1.45;;
12467;SDS011;57850;52.922;6.256;2023-07-20T12:26:22;3.90;;;1.92;;
12467;SDS011;57850;52.922;6.256;2023-07-20T12:28:49;2.38;;;1.90;;
12467;SDS011;57850;52.922;6.256;2023-07-20T12:31:16;1.88;;;1.60;;
12467;SDS011;57850;52.922;6.256;2023-07-20T12:33:42;2.08;;;1.90;;
12467;SDS011;57850;52.922;6.256;2023-07-20T12:36:09;1.58;;;1.48;;
12467;SDS011;57850;52.922;6.256;2023-07-20T12:38:38;2.08;;;1.38;;
12467;SDS011;57850;52.922;6.256;2023-07-20T12:41:04;1.90;;;1.52;;
12467;SDS011;57850;52.922;6.256;2023-07-20T12:43:31;2.15;;;1.55;;
12467;SDS011;57850;52.922;6.256;2023-07-20T12:45:58;3.25;;;1.67;;
12467;SDS011;57850;52.922;6.256;2023-07-20T12:48:25;4.47;;;1.48;;
12467;SDS011;57850;52.922;6.256;2023-07-20T12:50:52;3.00;;;1.65;;
12467;SDS011;57850;52.922;6.256;2023-07-20T12:53:20;3.10;;;1.60;;
12467;SDS011;57850;52.922;6.256;2023-07-20T12:55:48;2.22;;;1.40;;
12467;SDS011;57850;52.922;6.256;2023-07-20T12:58:15;1.33;;;1.23;;
12467;SDS011;57850;52.922;6.256;2023-07-20T13:00:41;1.58;;;1.35;;
12467;SDS011;57850;52.922;6.256;2023-07-20T13:03:09;1.75;;;1.65;;
12467;SDS011;57850;52.922;6.256;2023-07-20T13:05:35;1.38;;;1.27;;
12467;SDS011;57850;52.922;6.256;2023-07-20T13:08:03;1.60;;;1.50;;
12467;SDS011;57850;52.922;6.256;2023-07-20T13:10:30;1.80;;;1.50;;
12467;SDS011;57850;52.922;6.256;2023-07-20T13:12:59;1.88;;;1.42;;
12467;SDS011;57850;52.922;6.256;2023-07-20T13:15:29;2.75;;;1.73;;
12467;SDS011;57850;52.922;6.256;2023-07-20T13:17:57;3.63;;;1.58;;
12467;SDS011;57850;52.922;6.256;2023-07-20T13:20:25;1.63;;;1.52;;
12467;SDS011;57850;52.922;6.256;2023-07-20T13:22:53;1.67;;;1.52;;
12467;SDS011;57850;52.922;6.256;2023-07-20T13:25:20;1.90;;;1.65;;
12467;SDS011;57850;52.922;6.256;2023-07-20T13:27:47;2.42;;;1.80;;
12467;SDS011;57850;52.922;6.256;2023-07-20T13:30:15;4.60;;;1.88;;
12467;SDS011;57850;52.922;6.256;2023-07-20T13:32:43;1.50;;;1.40;;
12467;SDS011;57850;52.922;6.256;2023-07-20T13:35:09;1.70;;;1.60;;
12467;SDS011;57850;52.922;6.256;2023-07-20T13:37:36;2.38;;;1.40;;
12467;SDS011;57850;52.922;6.256;2023-07-20T13:40:04;2.30;;;1.42;;
12467;SDS011;57850;52.922;6.256;2023-07-20T13:42:31;1.70;;;1.60;;
12467;SDS011;57850;52.922;6.256;2023-07-20T13:44:58;2.10;;;1.80;;
12467;SDS011;57850;52.922;6.256;2023-07-20T13:47:26;1.98;;;1.60;;
12467;SDS011;57850;52.922;6.256;2023-07-20T13:49:53;2.72;;;1.52;;
12467;SDS011;57850;52.922;6.256;2023-07-20T13:52:19;1.65;;;1.55;;
12467;SDS011;57850;52.922;6.256;2023-07-20T13:54:46;2.55;;;1.90;;
12467;SDS011;57850;52.922;6.256;2023-07-20T13:57:13;2.38;;;1.27;;
12467;SDS011;57850;52.922;6.256;2023-07-20T13:59:40;2.50;;;1.40;;
12467;SDS011;57850;52.922;6.256;2023-07-20T14:02:06;1.60;;;1.48;;
12467;SDS011;57850;52.922;6.256;2023-07-20T14:04:34;3.15;;;1.55;;
12467;SDS011;57850;52.922;6.256;2023-07-20T14:07:01;3.35;;;1.75;;
12467;SDS011;57850;52.922;6.256;2023-07-20T14:09:28;2.00;;;1.50;;
12467;SDS011;57850;52.922;6.256;2023-07-20T14:11:54;1.90;;;1.63;;
12467;SDS011;57850;52.922;6.256;2023-07-20T14:14:21;2.22;;;1.30;;
12467;SDS011;57850;52.922;6.256;2023-07-20T14:16:48;9.07;;;1.70;;
12467;SDS011;57850;52.922;6.256;2023-07-20T14:19:14;1.40;;;1.30;;
12467;SDS011;57850;52.922;6.256;2023-07-20T14:21:42;1.30;;;1.20;;
12467;SDS011;57850;52.922;6.256;2023-07-20T14:24:09;3.03;;;1.70;;
12467;SDS011;57850;52.922;6.256;2023-07-20T14:26:36;1.40;;;1.30;;
12467;SDS011;57850;52.922;6.256;2023-07-20T14:29:03;2.08;;;1.40;;
12467;SDS011;57850;52.922;6.256;2023-07-20T14:31:29;7.35;;;2.33;;
12467;SDS011;57850;52.922;6.256;2023-07-20T14:33:56;2.25;;;1.77;;
12467;SDS011;57850;52.922;6.256;2023-07-20T14:36:23;1.73;;;1.55;;
12467;SDS011;57850;52.922;6.256;2023-07-20T14:38:50;3.40;;;1.70;;
12467;SDS011;57850;52.922;6.256;2023-07-20T14:41:17;2.40;;;1.67;;
12467;SDS011;57850;52.922;6.256;2023-07-20T14:43:44;3.22;;;1.63;;
12467;SDS011;57850;52.922;6.256;2023-07-20T14:46:10;2.28;;;1.70;;
12467;SDS011;57850;52.922;6.256;2023-07-20T14:48:37;2.75;;;1.80;;
12467;SDS011;57850;52.922;6.256;2023-07-20T14:51:03;1.98;;;1.50;;
12467;SDS011;57850;52.922;6.256;2023-07-20T14:53:30;2.00;;;1.75;;
12467;SDS011;57850;52.922;6.256;2023-07-20T14:56:01;2.38;;;1.70;;
12467;SDS011;57850;52.922;6.256;2023-07-20T14:58:29;1.67;;;1.58;;
12467;SDS011;57850;52.922;6.256;2023-07-20T15:00:55;2.33;;;1.60;;